Amelia, LA

7:56 AM CST on February 28, 2015 (GMT -0600)
North Berwick Station | Change Station
CLOSE
Current Station
Personal Weather Station
Location: Berwick, LA
Elevation: 0 ft
Nearby Weather Stations

Elev 0 ft 29.72 °N, 91.24 °W | Updated 2 seconds ago

Overcast
Overcast
45.0 °F
Feels Like 41 °F
N
8.0
Wind Variable Wind from ENE
Gusts 15.0 mph

Today
High -- | Low -- °F
--% Chance of Precip.
Yesterday
High -- | Low -- °F
Precip. -- in
6:32 AM 6:03 PM
Waxing Gibbous, 77% visible
Pressure 30.38 in
Visibility 10.0 miles
Clouds Overcast 11000 ft
Windchill 41 °F
Dew Point 38 °F
Humidity 75%
Rainfall 0.00 in
Snow Depth Not available.
UV 0.6 out of 12
Pollen 9.50 out of 12
Air Quality Not available.
Flu Activity Not available.
METAR KPTN 281335Z AUTO 06011KT 10SM OVC110 05/M01 A3038 RMK AO1

More Conditions Fewer Conditions

Pressure 30.38 in
Visibility 10.0 miles
Clouds Overcast 11000 ft
Windchill 41 °F
Dew Point 38 °F
Humidity 75%
Rainfall 0.00 in
Snow Depth Not available.
UV 0.6 out of 12
Pollen 9.50 out of 12
Air Quality Not available.
Flu Activity Not available.
METAR KPTN 281335Z AUTO 06011KT 10SM OVC110 05/M01 A3038 RMK AO1

More Conditions Fewer Conditions

10-Day Weather Forecast

Almanac

Astronomy

Feb. 28, 2015 Rise Set
Actual Time
Civil Twilight
Nautical Twilight
Astronomical Twilight
Moon
Length of Visible Light
Length of Day
Tomorrow will be .
, % of the Moon is Illuminated

Today's Extremes

State Highs State Lows

Community

WunderPhotos

Upload Photos

1,801,014 photos uploaded!

WunderBlogs® & News

Nearby

Air Quality

  Air Quality AQ Index Pollutant
Not available.

Snow Depth

Station Depth Elevation

Earthquake Activity

City Distance Mag. Time & Date
Minimum magnitude displayed is 2.5.

Coastal Water Temperatures

Place Temperature

Nearby Weather Stations